createdAt,value
2023-06-26T00:00:09.165Z,73.96
2023-06-26T00:02:37.176Z,73.93
2023-06-26T00:05:05.268Z,73.82
2023-06-26T00:07:35.297Z,74.21
2023-06-26T00:10:03.883Z,74.24
2023-06-26T00:12:32.133Z,74.38
2023-06-26T00:15:01.501Z,74.35
2023-06-26T00:17:31.191Z,74.10
2023-06-26T00:19:59.136Z,73.89
2023-06-26T00:22:27.101Z,74.26
2023-06-26T00:25:23.872Z,74.54
2023-06-26T00:27:52.011Z,74.33
2023-06-26T00:30:20.009Z,74.21
2023-06-26T00:32:49.534Z,74.04
2023-06-26T00:35:17.625Z,74.45
2023-06-26T00:37:46.465Z,74.50
2023-06-26T00:40:15.080Z,74.53
2023-06-26T00:42:43.196Z,74.15
2023-06-26T00:45:11.396Z,74.25
2023-06-26T00:47:39.753Z,74.47
2023-06-26T00:50:09.760Z,74.50
2023-06-26T00:52:38.081Z,74.56
2023-06-26T00:55:06.300Z,74.64
2023-06-26T00:57:34.469Z,75.10
2023-06-26T01:00:05.099Z,75.37
2023-06-26T01:02:35.185Z,76.10
2023-06-26T01:05:07.381Z,76.48
2023-06-26T01:07:39.209Z,76.45
2023-06-26T01:10:08.019Z,76.43
2023-06-26T01:12:36.003Z,76.37
2023-06-26T01:15:04.442Z,76.82
2023-06-26T01:17:33.501Z,76.59
2023-06-26T01:20:02.037Z,76.96
2023-06-26T01:22:35.065Z,76.97
2023-06-26T01:25:10.242Z,77.43
2023-06-26T01:27:40.230Z,77.29
2023-06-26T01:30:09.543Z,77.00
2023-06-26T01:32:38.021Z,76.88
2023-06-26T01:35:08.159Z,76.67
2023-06-26T01:37:36.095Z,76.58
2023-06-26T01:40:06.596Z,76.61
2023-06-26T01:42:34.839Z,76.49
2023-06-26T01:45:07.880Z,76.18
2023-06-26T01:47:40.065Z,76.28
2023-06-26T01:50:11.930Z,76.17
2023-06-26T01:52:42.776Z,76.01
2023-06-26T01:55:14.783Z,75.65
2023-06-26T01:57:44.388Z,76.19
2023-06-26T02:00:15.769Z,76.16
2023-06-26T02:02:44.388Z,75.96
2023-06-26T02:05:15.480Z,76.01
2023-06-26T02:07:43.697Z,75.84
2023-06-26T02:10:12.334Z,75.99
2023-06-26T02:12:40.598Z,76.08
2023-06-26T02:15:09.736Z,75.95
2023-06-26T02:17:39.243Z,75.93
2023-06-26T02:20:10.476Z,75.96
2023-06-26T02:22:38.592Z,76.43
2023-06-26T02:25:06.960Z,77.12
2023-06-26T02:27:34.972Z,77.35
2023-06-26T02:30:02.909Z,78.48
2023-06-26T02:32:31.941Z,79.72
2023-06-26T02:35:01.251Z,78.78
2023-06-26T02:37:29.364Z,79.24
2023-06-26T02:39:57.407Z,80.00
2023-06-26T02:42:25.437Z,80.03
2023-06-26T02:44:53.850Z,80.34
2023-06-26T02:47:21.882Z,80.11
2023-06-26T02:49:50.250Z,79.90
2023-06-26T02:52:20.216Z,79.82
2023-06-26T02:54:48.684Z,79.94
2023-06-26T02:57:18.220Z,80.36
2023-06-26T02:59:46.250Z,80.51
2023-06-26T03:02:15.414Z,80.71
2023-06-26T03:04:46.948Z,81.13
2023-06-26T03:07:16.113Z,80.64
2023-06-26T03:09:45.911Z,80.95
2023-06-26T03:12:14.540Z,80.90
2023-06-26T03:14:46.507Z,80.52
2023-06-26T03:17:15.539Z,80.14
2023-06-26T03:19:46.175Z,79.73
2023-06-26T03:22:21.312Z,79.21
2023-06-26T03:24:51.120Z,78.15
2023-06-26T03:27:19.731Z,76.72
2023-06-26T03:29:49.702Z,75.44
2023-06-26T03:32:21.949Z,74.98
2023-06-26T03:34:51.348Z,74.50
2023-06-26T03:37:19.426Z,73.65
2023-06-26T03:39:47.684Z,73.09
2023-06-26T03:42:23.360Z,72.94
2023-06-26T03:44:51.454Z,72.53
2023-06-26T03:47:20.861Z,71.53
2023-06-26T03:49:49.013Z,70.58
2023-06-26T03:52:16.944Z,70.98
2023-06-26T03:54:44.981Z,70.67
2023-06-26T03:57:13.105Z,69.99
2023-06-26T03:59:42.636Z,68.68
2023-06-26T04:02:10.773Z,68.30
2023-06-26T04:04:39.098Z,68.30
2023-06-26T04:07:07.360Z,68.08
2023-06-26T04:09:35.375Z,67.31
2023-06-26T04:12:03.361Z,66.32
2023-06-26T04:14:31.412Z,65.94
2023-06-26T04:17:02.982Z,66.49
2023-06-26T04:19:31.343Z,66.10
2023-06-26T04:21:59.582Z,65.96
2023-06-26T04:24:27.691Z,65.66
2023-06-26T04:26:58.254Z,65.33
2023-06-26T04:29:26.833Z,64.77
2023-06-26T04:31:59.553Z,64.93
2023-06-26T04:34:33.707Z,64.76
2023-06-26T04:37:01.833Z,64.85
2023-06-26T04:39:29.775Z,64.51
2023-06-26T04:41:57.805Z,64.06
2023-06-26T04:44:25.788Z,63.73
2023-06-26T04:46:54.113Z,63.66
2023-06-26T04:49:22.120Z,63.53
2023-06-26T04:51:52.193Z,63.14
2023-06-26T04:54:20.204Z,63.09
2023-06-26T04:56:49.331Z,62.55
2023-06-26T04:59:17.337Z,61.93
2023-06-26T05:01:49.576Z,61.10
2023-06-26T05:04:17.995Z,60.88
2023-06-26T05:06:46.060Z,60.62
2023-06-26T05:09:15.625Z,60.15
2023-06-26T05:11:43.767Z,60.74
2023-06-26T05:14:12.099Z,61.26
2023-06-26T05:16:39.969Z,61.58
2023-06-26T05:19:08.061Z,61.19
2023-06-26T05:21:36.402Z,61.15
2023-06-26T05:24:04.925Z,61.02
2023-06-26T05:26:34.728Z,61.51
2023-06-26T05:29:03.145Z,61.58
2023-06-26T05:31:34.508Z,61.80
2023-06-26T05:34:05.001Z,61.69
2023-06-26T05:36:35.103Z,62.14
2023-06-26T05:39:03.687Z,62.73
2023-06-26T05:41:31.964Z,63.41
2023-06-26T05:44:01.463Z,63.37
2023-06-26T05:46:29.444Z,62.80
2023-06-26T05:48:57.391Z,63.32
2023-06-26T05:51:26.158Z,63.33
2023-06-26T05:53:54.483Z,63.68
2023-06-26T05:56:22.961Z,63.25
2023-06-26T05:58:52.242Z,63.50
2023-06-26T06:01:22.099Z,63.38
2023-06-26T06:03:50.646Z,62.80
2023-06-26T06:06:19.260Z,62.15
2023-06-26T06:08:49.411Z,62.40
2023-06-26T06:11:17.813Z,61.85
2023-06-26T06:13:45.867Z,61.27
2023-06-26T06:16:13.868Z,60.81
2023-06-26T06:18:43.556Z,60.63
2023-06-26T06:21:11.589Z,60.48
2023-06-26T06:23:40.205Z,60.04
2023-06-26T06:26:08.186Z,59.15
2023-06-26T06:28:36.992Z,58.77
2023-06-26T06:31:05.449Z,58.18
2023-06-26T06:33:33.458Z,58.04
2023-06-26T06:36:02.768Z,58.00
2023-06-26T06:38:59.122Z,57.77
2023-06-26T06:41:27.165Z,57.88
2023-06-26T06:43:55.478Z,58.58
2023-06-26T06:46:24.861Z,57.77
2023-06-26T06:48:53.294Z,57.69
2023-06-26T06:51:24.014Z,57.71
2023-06-26T06:53:52.489Z,57.82
2023-06-26T06:56:20.428Z,58.26
2023-06-26T06:58:48.456Z,58.45
2023-06-26T07:01:16.457Z,57.63
2023-06-26T07:03:44.763Z,56.66
2023-06-26T07:06:12.908Z,56.02
2023-06-26T07:08:42.347Z,56.70
2023-06-26T07:11:10.317Z,55.84
2023-06-26T07:13:38.720Z,55.88
2023-06-26T07:16:06.690Z,55.96
2023-06-26T07:18:34.789Z,55.69
2023-06-26T07:21:02.717Z,56.62
2023-06-26T07:23:31.374Z,57.25
2023-06-26T07:26:00.821Z,57.82
2023-06-26T07:28:28.920Z,57.14
2023-06-26T07:30:56.927Z,55.99
2023-06-26T07:33:25.026Z,55.28
2023-06-26T07:35:52.968Z,56.33
2023-06-26T07:38:21.105Z,55.72
2023-06-26T07:40:49.285Z,55.33
2023-06-26T07:43:18.671Z,56.04
2023-06-26T07:45:46.587Z,56.10
2023-06-26T07:48:14.716Z,56.49
2023-06-26T07:50:42.898Z,55.51
2023-06-26T07:53:11.120Z,54.74
2023-06-26T07:55:39.313Z,54.17
2023-06-26T07:58:07.350Z,54.41
2023-06-26T08:00:37.046Z,55.08
2023-06-26T08:03:06.004Z,55.43
2023-06-26T08:05:35.881Z,55.33
2023-06-26T08:08:04.305Z,55.22
2023-06-26T08:10:32.715Z,54.55
2023-06-26T08:13:00.894Z,54.26
2023-06-26T08:15:28.868Z,53.39
2023-06-26T08:17:58.455Z,52.43
2023-06-26T08:20:26.573Z,52.43
2023-06-26T08:22:55.539Z,51.47
2023-06-26T08:25:23.592Z,51.65
2023-06-26T08:27:53.874Z,52.20
2023-06-26T08:30:22.020Z,53.44
2023-06-26T08:32:52.676Z,53.59
2023-06-26T08:35:22.206Z,52.70
2023-06-26T08:37:50.240Z,51.48
2023-06-26T08:40:19.798Z,51.06
2023-06-26T08:42:48.135Z,50.46
2023-06-26T08:45:16.401Z,50.52
2023-06-26T08:47:45.988Z,49.93
2023-06-26T08:50:14.920Z,49.48
2023-06-26T08:52:46.370Z,49.26
2023-06-26T08:55:14.731Z,48.51
2023-06-26T08:57:44.176Z,49.17
2023-06-26T09:03:16.561Z,49.51
2023-06-26T09:05:44.706Z,47.89
2023-06-26T09:08:17.119Z,48.61
2023-06-26T09:10:48.395Z,48.33
2023-06-26T09:13:28.046Z,48.40
2023-06-26T09:15:58.231Z,48.53
2023-06-26T09:18:28.937Z,48.02
2023-06-26T09:20:57.016Z,47.82
2023-06-26T09:23:26.480Z,48.23
2023-06-26T09:25:54.620Z,48.41
2023-06-26T09:28:22.648Z,47.97
2023-06-26T09:30:54.335Z,47.29
2023-06-26T09:33:22.994Z,46.73
2023-06-26T09:35:51.134Z,46.33
2023-06-26T09:38:19.563Z,46.85
2023-06-26T09:40:49.106Z,46.81
2023-06-26T09:43:17.230Z,46.72
2023-06-26T09:45:46.676Z,46.33
2023-06-26T09:48:18.527Z,46.03
2023-06-26T09:50:56.619Z,44.94
2023-06-26T09:53:37.180Z,45.54
2023-06-26T09:56:09.055Z,44.58
2023-06-26T09:58:38.687Z,45.18
2023-06-26T10:01:08.729Z,45.58
2023-06-26T10:03:37.219Z,45.59
2023-06-26T10:06:06.560Z,45.42
2023-06-26T10:08:36.625Z,45.24
2023-06-26T10:11:04.688Z,45.73
2023-06-26T10:13:37.062Z,46.15
2023-06-26T10:16:05.702Z,46.83
2023-06-26T10:18:34.950Z,47.67
2023-06-26T10:21:04.655Z,47.69
2023-06-26T10:23:33.230Z,47.90
2023-06-26T10:26:04.601Z,47.57
2023-06-26T10:28:35.706Z,48.03
2023-06-26T10:31:05.571Z,47.85
2023-06-26T10:33:34.264Z,47.51
2023-06-26T10:36:17.073Z,47.09
2023-06-26T10:38:52.337Z,47.63
2023-06-26T10:41:24.281Z,47.81
2023-06-26T10:44:08.333Z,48.13
2023-06-26T10:46:50.295Z,48.65
2023-06-26T10:49:19.579Z,49.06
2023-06-26T10:51:51.683Z,49.80
2023-06-26T10:54:20.957Z,49.96
2023-06-26T10:56:49.585Z,51.15
2023-06-26T10:59:20.029Z,52.99
2023-06-26T11:01:48.465Z,53.81
2023-06-26T11:04:17.808Z,54.42
2023-06-26T11:06:47.752Z,54.49
2023-06-26T11:09:16.884Z,54.99
2023-06-26T11:11:59.951Z,54.72
2023-06-26T11:14:30.134Z,54.62
2023-06-26T11:16:59.463Z,54.79
2023-06-26T11:19:28.567Z,54.85
2023-06-26T11:22:01.585Z,55.31
2023-06-26T11:24:30.696Z,55.78
2023-06-26T11:27:02.144Z,56.28
2023-06-26T11:29:31.727Z,57.06
2023-06-26T11:32:07.268Z,57.04
2023-06-26T11:34:36.285Z,57.71
2023-06-26T11:37:05.063Z,59.78
2023-06-26T11:39:33.563Z,60.48
2023-06-26T11:42:02.180Z,60.19
2023-06-26T11:44:34.762Z,60.23
2023-06-26T11:47:02.832Z,60.13
2023-06-26T11:49:31.525Z,59.68
2023-06-26T11:52:00.081Z,59.33
2023-06-26T11:54:29.210Z,58.92
2023-06-26T11:56:59.809Z,58.88
2023-06-26T11:59:36.015Z,59.28
2023-06-26T12:02:07.112Z,59.22
2023-06-26T12:04:36.730Z,59.10
2023-06-26T12:07:08.270Z,59.33
2023-06-26T12:09:37.950Z,59.80
2023-06-26T12:12:06.627Z,61.39
2023-06-26T12:14:36.537Z,62.14
2023-06-26T12:17:09.725Z,63.47
2023-06-26T12:19:39.480Z,64.76
2023-06-26T12:22:12.434Z,64.21
2023-06-26T12:24:41.461Z,64.74
2023-06-26T12:27:10.693Z,65.91
2023-06-26T12:29:41.204Z,65.86
2023-06-26T12:32:11.374Z,65.67
2023-06-26T12:34:40.294Z,65.44
2023-06-26T12:37:09.806Z,65.12
2023-06-26T12:39:48.722Z,64.63
2023-06-26T12:42:17.770Z,64.64
2023-06-26T12:44:48.000Z,64.27
2023-06-26T12:47:16.791Z,64.01
2023-06-26T12:49:45.912Z,63.98
2023-06-26T12:52:14.950Z,63.61
2023-06-26T12:54:44.455Z,64.51
2023-06-26T12:57:15.524Z,66.05
2023-06-26T12:59:44.301Z,66.86
2023-06-26T13:02:14.671Z,68.10
2023-06-26T13:04:45.812Z,69.42
2023-06-26T13:07:14.993Z,69.69
2023-06-26T13:09:43.180Z,70.62
2023-06-26T13:12:11.754Z,70.77
2023-06-26T13:14:40.920Z,70.76
2023-06-26T13:17:10.131Z,69.81
2023-06-26T13:19:40.174Z,69.23
2023-06-26T13:22:16.693Z,68.71
2023-06-26T13:24:45.029Z,68.38
2023-06-26T13:27:13.341Z,68.95
2023-06-26T13:29:44.661Z,68.89
2023-06-26T13:32:23.391Z,68.77
2023-06-26T13:34:53.483Z,68.74
2023-06-26T13:37:21.645Z,67.63
2023-06-26T13:39:51.425Z,67.12
2023-06-26T13:42:20.114Z,66.07
2023-06-26T13:45:01.078Z,65.60
2023-06-26T13:47:32.336Z,65.88
2023-06-26T13:50:01.870Z,66.16
2023-06-26T13:52:29.961Z,66.80
2023-06-26T13:54:58.065Z,67.36
2023-06-26T13:57:28.809Z,67.80
2023-06-26T13:59:56.840Z,67.94
2023-06-26T14:02:27.715Z,67.85
2023-06-26T14:04:56.011Z,67.98
2023-06-26T14:07:26.170Z,68.08
2023-06-26T14:09:54.625Z,68.08
2023-06-26T14:12:22.763Z,68.44
2023-06-26T14:14:50.980Z,68.06
2023-06-26T14:17:19.327Z,67.88
2023-06-26T14:19:48.158Z,67.69
2023-06-26T14:22:16.253Z,68.16
2023-06-26T14:24:45.957Z,68.28
2023-06-26T14:27:15.778Z,68.83
2023-06-26T14:29:43.923Z,69.42
2023-06-26T14:32:13.913Z,69.79
2023-06-26T14:34:42.395Z,70.09
2023-06-26T14:37:10.961Z,70.30
2023-06-26T14:39:43.623Z,70.11
2023-06-26T14:42:15.059Z,70.18
2023-06-26T14:44:47.867Z,70.86
2023-06-26T14:47:16.427Z,70.79
2023-06-26T14:49:44.604Z,70.48
2023-06-26T14:52:13.007Z,71.01
2023-06-26T14:54:41.282Z,70.88
2023-06-26T14:57:09.526Z,71.21
2023-06-26T14:59:39.297Z,71.21
2023-06-26T15:02:07.667Z,71.03
2023-06-26T15:04:35.788Z,70.90
2023-06-26T15:07:03.965Z,70.84
2023-06-26T15:09:33.231Z,70.67
2023-06-26T15:12:01.377Z,70.27
2023-06-26T15:14:29.868Z,69.94
2023-06-26T15:16:59.366Z,69.80
2023-06-26T15:19:27.438Z,69.58
2023-06-26T15:21:55.576Z,69.34
2023-06-26T15:24:23.745Z,69.16
2023-06-26T15:26:52.173Z,69.13
2023-06-26T15:29:20.405Z,69.02
2023-06-26T15:31:48.550Z,69.10
2023-06-26T15:34:18.054Z,68.93
2023-06-26T15:36:46.063Z,68.96
2023-06-26T15:39:14.340Z,69.18
2023-06-26T15:41:42.507Z,69.17
2023-06-26T15:44:10.553Z,69.06
2023-06-26T15:46:39.142Z,69.19
2023-06-26T15:49:09.035Z,69.03
2023-06-26T15:51:38.980Z,69.21
2023-06-26T15:54:07.586Z,68.91
2023-06-26T15:56:35.799Z,68.63
2023-06-26T15:59:03.808Z,68.18
2023-06-26T16:01:32.113Z,68.07
2023-06-26T16:04:00.935Z,67.90
2023-06-26T16:06:31.608Z,67.91
2023-06-26T16:09:01.523Z,67.60
2023-06-26T16:11:29.707Z,67.29
2023-06-26T16:13:59.611Z,67.05
2023-06-26T16:16:27.774Z,67.05
2023-06-26T16:18:59.173Z,66.86
2023-06-26T16:21:27.432Z,66.63
2023-06-26T16:23:55.629Z,66.60
2023-06-26T16:26:25.236Z,66.60
2023-06-26T16:28:53.482Z,66.52
2023-06-26T16:31:21.848Z,66.73
2023-06-26T16:34:04.494Z,66.85
2023-06-26T16:36:33.070Z,66.85
2023-06-26T16:39:02.372Z,66.76
2023-06-26T16:41:32.735Z,66.86
2023-06-26T16:44:00.856Z,67.09
2023-06-26T16:46:29.096Z,67.23
2023-06-26T16:48:58.246Z,67.14
2023-06-26T16:51:26.433Z,67.23
2023-06-26T16:53:54.688Z,67.09
2023-06-26T16:56:23.186Z,67.20
2023-06-26T16:58:52.946Z,67.17
2023-06-26T17:01:23.951Z,67.16
2023-06-26T17:03:52.987Z,67.28
2023-06-26T17:06:21.206Z,67.29
2023-06-26T17:08:49.336Z,67.28
2023-06-26T17:11:18.203Z,67.32
2023-06-26T17:13:48.409Z,67.29
2023-06-26T17:16:21.047Z,67.13
2023-06-26T17:18:49.442Z,67.20
2023-06-26T17:21:17.541Z,66.90
2023-06-26T17:23:45.576Z,66.88
2023-06-26T17:26:13.840Z,66.92
2023-06-26T17:28:42.035Z,66.97
2023-06-26T17:31:10.183Z,66.80
2023-06-26T17:33:39.999Z,66.68
2023-06-26T17:36:09.513Z,66.65
2023-06-26T17:38:38.929Z,66.74
2023-06-26T17:41:07.083Z,66.67
2023-06-26T17:43:36.002Z,66.88
2023-06-26T17:46:04.351Z,66.67
2023-06-26T17:48:32.772Z,66.75
2023-06-26T17:51:02.407Z,66.95
2023-06-26T17:53:30.718Z,66.87
2023-06-26T17:55:58.893Z,66.97
2023-06-26T17:58:27.854Z,67.28
2023-06-26T18:00:56.271Z,67.21
2023-06-26T18:03:24.563Z,67.48
2023-06-26T18:05:53.115Z,67.35
2023-06-26T18:08:22.915Z,67.58
2023-06-26T18:10:51.051Z,67.66
2023-06-26T18:13:19.452Z,67.50
2023-06-26T18:15:47.595Z,67.84
2023-06-26T18:18:16.328Z,67.96
2023-06-26T18:20:44.740Z,68.02
2023-06-26T18:23:12.918Z,68.42
2023-06-26T18:25:42.542Z,68.53
2023-06-26T18:28:10.783Z,68.80
2023-06-26T18:30:39.235Z,69.05
2023-06-26T18:33:08.048Z,69.28
2023-06-26T18:35:36.419Z,69.57
2023-06-26T18:38:06.130Z,69.68
2023-06-26T18:40:34.292Z,70.21
2023-06-26T18:43:04.285Z,70.29
2023-06-26T18:45:34.589Z,70.28
2023-06-26T18:48:02.726Z,70.46
2023-06-26T18:50:31.135Z,70.67
2023-06-26T18:52:59.623Z,71.23
2023-06-26T18:55:29.433Z,71.38
2023-06-26T18:57:57.591Z,71.64
2023-06-26T19:00:27.202Z,71.34
2023-06-26T19:02:55.433Z,71.48
2023-06-26T19:05:23.536Z,71.92
2023-06-26T19:07:51.938Z,72.14
2023-06-26T19:10:20.236Z,72.22
2023-06-26T19:12:50.225Z,72.33
2023-06-26T19:15:18.814Z,72.30
2023-06-26T19:17:48.593Z,72.44
2023-06-26T19:20:17.420Z,72.51
2023-06-26T19:22:45.598Z,72.78
2023-06-26T19:25:13.686Z,72.80
2023-06-26T19:27:42.572Z,73.22
2023-06-26T19:30:11.154Z,73.48
2023-06-26T19:32:39.322Z,73.34
2023-06-26T19:35:10.041Z,73.41
2023-06-26T19:37:45.740Z,73.34
2023-06-26T19:40:27.710Z,73.40
2023-06-26T19:42:56.007Z,73.60
2023-06-26T19:45:24.306Z,73.59
2023-06-26T19:47:55.488Z,73.85
2023-06-26T19:50:25.151Z,74.03
2023-06-26T19:52:53.310Z,73.93
2023-06-26T19:55:21.637Z,73.87
2023-06-26T19:57:50.898Z,73.98
2023-06-26T20:00:19.726Z,74.04
2023-06-26T20:02:48.200Z,74.16
2023-06-26T20:05:16.650Z,74.30
2023-06-26T20:07:47.345Z,74.42
2023-06-26T20:10:15.936Z,74.65
2023-06-26T20:12:46.831Z,74.64
2023-06-26T20:15:15.062Z,74.57
2023-06-26T20:17:43.374Z,75.14
2023-06-26T20:20:12.143Z,75.16
2023-06-26T20:22:40.264Z,74.97
2023-06-26T20:25:10.479Z,74.76
2023-06-26T20:27:39.316Z,74.80
2023-06-26T20:30:08.466Z,74.86
2023-06-26T20:32:36.528Z,74.73
2023-06-26T20:35:04.665Z,74.87
2023-06-26T20:37:32.777Z,74.68
2023-06-26T20:40:01.656Z,74.71
2023-06-26T20:42:31.523Z,74.74
2023-06-26T20:44:59.906Z,74.66
2023-06-26T20:47:34.253Z,74.79
2023-06-26T20:50:08.548Z,74.76
2023-06-26T20:52:44.731Z,75.11
2023-06-26T20:55:13.610Z,75.11
2023-06-26T20:57:43.134Z,75.06
2023-06-26T21:00:13.973Z,75.26
2023-06-26T21:02:42.340Z,75.43
2023-06-26T21:05:10.964Z,75.51
2023-06-26T21:07:39.047Z,75.50
2023-06-26T21:10:09.554Z,75.40
2023-06-26T21:12:37.987Z,75.36
2023-06-26T21:15:08.515Z,75.63
2023-06-26T21:17:36.584Z,75.59
2023-06-26T21:20:05.500Z,75.64
2023-06-26T21:22:33.630Z,75.77
2023-06-26T21:25:02.367Z,75.63
2023-06-26T21:27:31.878Z,75.73
2023-06-26T21:29:59.986Z,75.79
2023-06-26T21:32:29.582Z,76.12
2023-06-26T21:34:57.660Z,76.38
2023-06-26T21:37:26.394Z,76.59
2023-06-26T21:39:54.469Z,77.02
2023-06-26T21:42:22.626Z,77.06
2023-06-26T21:44:50.652Z,77.08
2023-06-26T21:47:18.843Z,76.95
2023-06-26T21:49:49.754Z,77.00
2023-06-26T21:52:18.181Z,76.66
2023-06-26T21:54:46.370Z,76.45
2023-06-26T21:57:14.573Z,76.53
2023-06-26T21:59:42.853Z,76.48
2023-06-26T22:02:11.094Z,76.38
2023-06-26T22:04:39.397Z,76.43
2023-06-26T22:07:08.944Z,76.95
2023-06-26T22:09:39.274Z,77.20
2023-06-26T22:12:07.997Z,77.66
2023-06-26T22:14:36.131Z,77.64
2023-06-26T22:17:04.325Z,78.39
2023-06-26T22:19:32.883Z,78.72
2023-06-26T22:22:01.776Z,78.78
2023-06-26T22:24:33.309Z,78.97
2023-06-26T22:27:02.483Z,78.91
2023-06-26T22:29:30.720Z,78.70
2023-06-26T22:31:58.896Z,78.45
2023-06-26T22:34:27.117Z,78.14
2023-06-26T22:36:56.372Z,78.12
2023-06-26T22:39:24.445Z,78.17
2023-06-26T22:41:53.921Z,79.53
2023-06-26T22:44:21.984Z,79.29
2023-06-26T22:46:50.247Z,79.36
2023-06-26T22:49:18.321Z,79.54
2023-06-26T22:51:50.258Z,79.56
2023-06-26T22:54:18.376Z,79.46
2023-06-26T22:56:55.294Z,79.66
2023-06-26T22:59:26.167Z,79.71
2023-06-26T23:01:54.346Z,79.64
2023-06-26T23:04:22.733Z,79.46
2023-06-26T23:06:52.378Z,79.85
2023-06-26T23:09:20.806Z,79.86
2023-06-26T23:11:48.897Z,80.15
2023-06-26T23:14:19.667Z,79.59
2023-06-26T23:17:02.301Z,79.73
2023-06-26T23:19:30.842Z,79.42
2023-06-26T23:21:59.679Z,79.53
2023-06-26T23:24:29.881Z,79.32
2023-06-26T23:27:00.205Z,79.49
2023-06-26T23:29:28.559Z,79.29
2023-06-26T23:31:58.360Z,79.45
2023-06-26T23:34:26.510Z,80.15
2023-06-26T23:36:54.674Z,80.51
2023-06-26T23:39:22.643Z,80.84
2023-06-26T23:41:51.690Z,81.19
2023-06-26T23:44:21.180Z,80.71
2023-06-26T23:46:50.019Z,80.35
2023-06-26T23:49:19.536Z,81.14
2023-06-26T23:51:48.475Z,80.90
2023-06-26T23:54:17.188Z,81.16
2023-06-26T23:56:45.630Z,81.19
2023-06-26T23:59:13.935Z,81.10
